Pacific Pathfinder — PATH — position and weather

sailwx.info

Track history (hours):
 
Tides and Currents Weather Stations Pressure Air Temp Water Temp Dewpoint Dewpoint Depression Visibility Wind Speed Wind Dir Waves Ship Positions

Pacific Pathfinder

Last reported at 2014-Aug-01 14:23 UTC. Time now 2014-Aug-01 16:04 UTC.
Position N 54°17' W 130°22'.

Length 15 m; draft 1.3 m.

Type: Pilot. MMSI: 316003484.

Date/timePositionNaut miles runAvg speedWind from/ knotsBaromVisibWave heightAir tempDewpointWater temp
2014-Aug-01 14:23N 54°17' W 130°22'1 1.4
2014-Aug-01 13:33N 54°18' W 130°21'1 0.3
2014-Aug-01 10:17N 54°17' W 130°22'1 1.3
2014-Aug-01 09:33N 54°18' W 130°21'0 0.0
2014-Aug-01 08:33N 54°18' W 130°21'0 0.0
2014-Aug-01 07:33N 54°18' W 130°21'0 0.0
2014-Aug-01 06:33N 54°18' W 130°21'0 0.0
2014-Aug-01 05:33N 54°18' W 130°21'0 0.0
2014-Aug-01 04:33N 54°18' W 130°21'0 0.0
2014-Aug-01 03:33N 54°18' W 130°21'0 0.0
2014-Aug-01 02:33N 54°18' W 130°21'0 0.0
2014-Aug-01 01:33N 54°18' W 130°21'0 0.0
2014-Aug-01 00:33N 54°18' W 130°21'0 0.0
2014-Jul-31 23:33N 54°18' W 130°21'0 0.0
2014-Jul-31 22:33N 54°18' W 130°21'0 0.0
2014-Jul-31 21:33N 54°18' W 130°21'0 0.0
2014-Jul-31 20:33N 54°18' W 130°21'0 0.0
2014-Jul-31 19:33N 54°18' W 130°21'0 0.0
2014-Jul-31 18:33N 54°18' W 130°21'2 2.0
2014-Jul-31 17:33N 54°19' W 130°19'0 0.1
2014-Jul-31 16:34N 54°19' W 130°19'2 2.0
2014-Jul-31 15:34N 54°18' W 130°21'0 0.0
2014-Jul-31 14:34N 54°18' W 130°21'0 0.0
2014-Jul-31 13:33N 54°18' W 130°21'0 0.0
2014-Jul-31 12:34N 54°18' W 130°21'0 0.0
2014-Jul-31 11:33N 54°18' W 130°21'0 0.0
2014-Jul-31 10:34N 54°18' W 130°21'0 0.0
2014-Jul-31 09:33N 54°18' W 130°21'0 0.0
2014-Jul-31 08:34N 54°18' W 130°21'0 0.0
2014-Jul-31 07:34N 54°18' W 130°21'6 2.3
2014-Jul-31 05:04N 54°19' W 130°31'6 2.3
2014-Jul-31 02:33N 54°18' W 130°21'0 0.0
2014-Jul-31 01:33N 54°18' W 130°21'0 0.0
2014-Jul-31 00:33N 54°18' W 130°21'0 0.0
2014-Jul-30 23:33N 54°18' W 130°21'0 0.0
2014-Jul-30 22:33N 54°18' W 130°21'0 0.0
2014-Jul-30 21:33N 54°18' W 130°21'0 0.0
2014-Jul-30 20:33N 54°18' W 130°21'0 0.0
2014-Jul-30 19:33N 54°18' W 130°21'0 0.0
2014-Jul-30 18:33N 54°18' W 130°21'0 0.0
2014-Jul-30 02:33N 54°18' W 130°21'1 0.6
2014-Jul-30 00:15N 54°16' W 130°22'1 1.8
2014-Jul-29 23:33N 54°18' W 130°21'1 0.2
2014-Jul-29 16:33N 54°17' W 130°22'1 1.1
2014-Jul-29 15:33N 54°18' W 130°21'0 0.0
2014-Jul-29 14:33N 54°18' W 130°21'0 0.0
2014-Jul-29 13:33N 54°18' W 130°21'0 0.0
2014-Jul-29 12:33N 54°18' W 130°21'0 0.0
2014-Jul-29 11:33N 54°18' W 130°21'0 0.0
2014-Jul-29 10:33N 54°18' W 130°21'0 0.0
2014-Jul-29 09:33N 54°18' W 130°21'0 0.0
2014-Jul-29 08:33N 54°18' W 130°21'0 0.0
2014-Jul-29 07:33N 54°18' W 130°21'0 0.0
2014-Jul-29 06:33N 54°18' W 130°21'0 0.0
2014-Jul-29 05:33N 54°18' W 130°21'0 0.0
2014-Jul-29 04:33N 54°18' W 130°21'0 0.0
2014-Jul-29 03:33N 54°18' W 130°21'0 0.0
2014-Jul-29 02:33N 54°18' W 130°21'4 3.5
2014-Jul-29 01:33N 54°20' W 130°26'4 0.6
2014-Jul-28 19:31N 54°18' W 130°21'0 0.0
2014-Jul-28 18:34N 54°18' W 130°21'0 0.0
2014-Jul-28 17:34N 54°18' W 130°21'0 0.0
2014-Jul-28 16:33N 54°18' W 130°21'0 0.0
2014-Jul-28 15:34N 54°18' W 130°21'0 0.0
2014-Jul-27 20:33N 54°18' W 130°21'0 0.0
2014-Jul-27 19:33N 54°18' W 130°21'2 2.0
2014-Jul-27 18:33N 54°19' W 130°19'2 2.0
2014-Jul-27 17:33N 54°18' W 130°21'0 0.0
2014-Jul-27 16:33N 54°18' W 130°21'0 0.0
2014-Jul-27 15:33N 54°18' W 130°21'0 0.0
2014-Jul-27 14:33N 54°18' W 130°21'0 0.0
2014-Jul-26 03:30N 54°18' W 130°21'0 0.0
2014-Jul-25 22:33N 54°18' W 130°21'0 0.0
2014-Jul-25 21:33N 54°18' W 130°21'4 3.8
2014-Jul-25 20:33N 54°20' W 130°26'8 5.2
2014-Jul-25 19:06N 54°16' W 130°37'916.6
2014-Jul-25 18:33N 54°17' W 130°22'1 0.9
2014-Jul-25 17:33N 54°18' W 130°21'0 0.0
2014-Jul-25 16:33N 54°18' W 130°21'0 0.0
2014-Jul-25 15:33N 54°18' W 130°21'0 0.0
2014-Jul-25 14:33N 54°18' W 130°21'0 0.0
2014-Jul-25 13:33N 54°18' W 130°21'0 0.0
2014-Jul-25 12:33N 54°18' W 130°21'0 0.0
2014-Jul-25 11:33N 54°18' W 130°21'0 0.0
2014-Jul-25 10:33N 54°18' W 130°21'0 0.0
2014-Jul-25 09:33N 54°18' W 130°21'0 0.0
2014-Jul-25 08:33N 54°18' W 130°21'0 0.0
2014-Jul-25 07:33N 54°18' W 130°21'0 0.0
2014-Jul-25 06:33N 54°18' W 130°21'6 2.7
2014-Jul-25 04:12N 54°18' W 130°32'6 2.4
2014-Jul-25 01:33N 54°18' W 130°21'2 1.8
2014-Jul-25 00:33N 54°19' W 130°20'2 1.8
2014-Jul-24 23:34N 54°18' W 130°21'8 2.2
2014-Jul-24 20:10N 54°15' W 130°34'812.7
2014-Jul-24 19:33N 54°18' W 130°21'0 0.0
2014-Jul-24 18:33N 54°18' W 130°21'0 0.0
2014-Jul-24 17:33N 54°18' W 130°21'0 0.0
2014-Jul-24 16:33N 54°18' W 130°21'0 0.0
2014-Jul-24 15:33N 54°18' W 130°21'0 0.0
2014-Jul-24 14:33N 54°18' W 130°21'0 0.0
2014-Jul-24 13:33N 54°18' W 130°21'0 0.0
2014-Jul-24 12:33N 54°18' W 130°21'1 0.8
2014-Jul-24 11:34N 54°18' W 130°21'2 0.3
2014-Jul-24 05:04N 54°17' W 130°22'1 2.0
2014-Jul-24 04:33N 54°18' W 130°21'0 0.0
2014-Jul-24 03:33N 54°18' W 130°21'0 0.0
2014-Jul-24 02:33N 54°18' W 130°21'0 0.0
2014-Jul-24 01:33N 54°18' W 130°21'0 0.0
2014-Jul-23 22:33N 54°18' W 130°21'0 0.0
2014-Jul-23 21:33N 54°18' W 130°21'0 0.0
2014-Jul-23 20:33N 54°18' W 130°21'0 0.0
2014-Jul-23 19:33N 54°18' W 130°21'2 1.8
2014-Jul-23 18:33N 54°19' W 130°20'0 0.4
2014-Jul-23 17:33N 54°19' W 130°19'3 0.9
2014-Jul-23 14:10N 54°17' W 130°22'1 1.7
2014-Jul-23 13:33N 54°18' W 130°21'0 0.0
2014-Jul-23 12:33N 54°18' W 130°21'0 0.0
2014-Jul-23 11:33N 54°18' W 130°21'0 0.0
2014-Jul-23 10:33N 54°18' W 130°21'0 0.1
2014-Jul-23 09:34N 54°18' W 130°21'1 0.6
2014-Jul-23 07:31N 54°17' W 130°22'1 1.2
2014-Jul-23 06:33N 54°18' W 130°21'0 0.0
2014-Jul-23 05:33N 54°18' W 130°21'1 0.3
2014-Jul-23 02:33N 54°17' W 130°22'1 0.2
2014-Jul-22 22:33N 54°18' W 130°21'0 0.0
2014-Jul-22 21:33N 54°18' W 130°21'0 0.0
2014-Jul-22 20:33N 54°18' W 130°21'0 0.0
2014-Jul-22 19:33N 54°18' W 130°21'0 0.0
2014-Jul-22 18:33N 54°18' W 130°21'0 0.0
2014-Jul-22 17:33N 54°18' W 130°21'2 2.0
2014-Jul-22 16:33N 54°19' W 130°19'2 2.0
2014-Jul-22 15:33N 54°18' W 130°21'  
Track history (hours):
 
Tides and Currents Weather Stations Pressure Air Temp Water Temp Dewpoint Dewpoint Depression Visibility Wind Speed Wind Dir Waves Ship Positions

Pacific Pathfinder

Last reported at 2014-Aug-01 14:23 UTC. Time now 2014-Aug-01 16:04 UTC.
Position N 54°17' W 130°22'.

Length 15 m; draft 1.3 m.

Type: Pilot. MMSI: 316003484.

Date/timePositionNaut miles runAvg speedWind from/ knotsBaromVisibWave heightAir tempDewpointWater temp
2014-Aug-01 14:23N 54°17' W 130°22'1 1.4
2014-Aug-01 13:33N 54°18' W 130°21'1 0.3
2014-Aug-01 10:17N 54°17' W 130°22'1 1.3
2014-Aug-01 09:33N 54°18' W 130°21'0 0.0
2014-Aug-01 08:33N 54°18' W 130°21'0 0.0
2014-Aug-01 07:33N 54°18' W 130°21'0 0.0
2014-Aug-01 06:33N 54°18' W 130°21'0 0.0
2014-Aug-01 05:33N 54°18' W 130°21'0 0.0
2014-Aug-01 04:33N 54°18' W 130°21'0 0.0
2014-Aug-01 03:33N 54°18' W 130°21'0 0.0
2014-Aug-01 02:33N 54°18' W 130°21'0 0.0
2014-Aug-01 01:33N 54°18' W 130°21'0 0.0
2014-Aug-01 00:33N 54°18' W 130°21'0 0.0
2014-Jul-31 23:33N 54°18' W 130°21'0 0.0
2014-Jul-31 22:33N 54°18' W 130°21'0 0.0
2014-Jul-31 21:33N 54°18' W 130°21'0 0.0
2014-Jul-31 20:33N 54°18' W 130°21'0 0.0
2014-Jul-31 19:33N 54°18' W 130°21'0 0.0
2014-Jul-31 18:33N 54°18' W 130°21'2 2.0
2014-Jul-31 17:33N 54°19' W 130°19'0 0.1
2014-Jul-31 16:34N 54°19' W 130°19'2 2.0
2014-Jul-31 15:34N 54°18' W 130°21'0 0.0
2014-Jul-31 14:34N 54°18' W 130°21'0 0.0
2014-Jul-31 13:33N 54°18' W 130°21'0 0.0
2014-Jul-31 12:34N 54°18' W 130°21'0 0.0
2014-Jul-31 11:33N 54°18' W 130°21'0 0.0
2014-Jul-31 10:34N 54°18' W 130°21'0 0.0
2014-Jul-31 09:33N 54°18' W 130°21'0 0.0
2014-Jul-31 08:34N 54°18' W 130°21'0 0.0
2014-Jul-31 07:34N 54°18' W 130°21'6 2.3
2014-Jul-31 05:04N 54°19' W 130°31'6 2.3
2014-Jul-31 02:33N 54°18' W 130°21'0 0.0
2014-Jul-31 01:33N 54°18' W 130°21'0 0.0
2014-Jul-31 00:33N 54°18' W 130°21'0 0.0
2014-Jul-30 23:33N 54°18' W 130°21'0 0.0
2014-Jul-30 22:33N 54°18' W 130°21'0 0.0
2014-Jul-30 21:33N 54°18' W 130°21'0 0.0
2014-Jul-30 20:33N 54°18' W 130°21'0 0.0
2014-Jul-30 19:33N 54°18' W 130°21'0 0.0
2014-Jul-30 18:33N 54°18' W 130°21'0 0.0
2014-Jul-30 02:33N 54°18' W 130°21'1 0.6
2014-Jul-30 00:15N 54°16' W 130°22'1 1.8
2014-Jul-29 23:33N 54°18' W 130°21'1 0.2
2014-Jul-29 16:33N 54°17' W 130°22'1 1.1
2014-Jul-29 15:33N 54°18' W 130°21'0 0.0
2014-Jul-29 14:33N 54°18' W 130°21'0 0.0
2014-Jul-29 13:33N 54°18' W 130°21'0 0.0
2014-Jul-29 12:33N 54°18' W 130°21'0 0.0
2014-Jul-29 11:33N 54°18' W 130°21'0 0.0
2014-Jul-29 10:33N 54°18' W 130°21'0 0.0
2014-Jul-29 09:33N 54°18' W 130°21'0 0.0
2014-Jul-29 08:33N 54°18' W 130°21'0 0.0
2014-Jul-29 07:33N 54°18' W 130°21'0 0.0
2014-Jul-29 06:33N 54°18' W 130°21'0 0.0
2014-Jul-29 05:33N 54°18' W 130°21'0 0.0
2014-Jul-29 04:33N 54°18' W 130°21'0 0.0
2014-Jul-29 03:33N 54°18' W 130°21'0 0.0
2014-Jul-29 02:33N 54°18' W 130°21'4 3.5
2014-Jul-29 01:33N 54°20' W 130°26'4 0.6
2014-Jul-28 19:31N 54°18' W 130°21'0 0.0
2014-Jul-28 18:34N 54°18' W 130°21'0 0.0
2014-Jul-28 17:34N 54°18' W 130°21'0 0.0
2014-Jul-28 16:33N 54°18' W 130°21'0 0.0
2014-Jul-28 15:34N 54°18' W 130°21'0 0.0
2014-Jul-27 20:33N 54°18' W 130°21'0 0.0
2014-Jul-27 19:33N 54°18' W 130°21'2 2.0
2014-Jul-27 18:33N 54°19' W 130°19'2 2.0
2014-Jul-27 17:33N 54°18' W 130°21'0 0.0
2014-Jul-27 16:33N 54°18' W 130°21'0 0.0
2014-Jul-27 15:33N 54°18' W 130°21'0 0.0
2014-Jul-27 14:33N 54°18' W 130°21'0 0.0
2014-Jul-26 03:30N 54°18' W 130°21'0 0.0
2014-Jul-25 22:33N 54°18' W 130°21'0 0.0
2014-Jul-25 21:33N 54°18' W 130°21'4 3.8
2014-Jul-25 20:33N 54°20' W 130°26'8 5.2
2014-Jul-25 19:06N 54°16' W 130°37'916.6
2014-Jul-25 18:33N 54°17' W 130°22'1 0.9
2014-Jul-25 17:33N 54°18' W 130°21'0 0.0
2014-Jul-25 16:33N 54°18' W 130°21'0 0.0
2014-Jul-25 15:33N 54°18' W 130°21'0 0.0
2014-Jul-25 14:33N 54°18' W 130°21'0 0.0
2014-Jul-25 13:33N 54°18' W 130°21'0 0.0
2014-Jul-25 12:33N 54°18' W 130°21'0 0.0
2014-Jul-25 11:33N 54°18' W 130°21'0 0.0
2014-Jul-25 10:33N 54°18' W 130°21'0 0.0
2014-Jul-25 09:33N 54°18' W 130°21'0 0.0
2014-Jul-25 08:33N 54°18' W 130°21'0 0.0
2014-Jul-25 07:33N 54°18' W 130°21'0 0.0
2014-Jul-25 06:33N 54°18' W 130°21'6 2.7
2014-Jul-25 04:12N 54°18' W 130°32'6 2.4
2014-Jul-25 01:33N 54°18' W 130°21'2 1.8
2014-Jul-25 00:33N 54°19' W 130°20'2 1.8
2014-Jul-24 23:34N 54°18' W 130°21'8 2.2
2014-Jul-24 20:10N 54°15' W 130°34'812.7
2014-Jul-24 19:33N 54°18' W 130°21'0 0.0
2014-Jul-24 18:33N 54°18' W 130°21'0 0.0
2014-Jul-24 17:33N 54°18' W 130°21'0 0.0
2014-Jul-24 16:33N 54°18' W 130°21'0 0.0
2014-Jul-24 15:33N 54°18' W 130°21'0 0.0
2014-Jul-24 14:33N 54°18' W 130°21'0 0.0
2014-Jul-24 13:33N 54°18' W 130°21'0 0.0
2014-Jul-24 12:33N 54°18' W 130°21'1 0.8
2014-Jul-24 11:34N 54°18' W 130°21'2 0.3
2014-Jul-24 05:04N 54°17' W 130°22'1 2.0
2014-Jul-24 04:33N 54°18' W 130°21'0 0.0
2014-Jul-24 03:33N 54°18' W 130°21'0 0.0
2014-Jul-24 02:33N 54°18' W 130°21'0 0.0
2014-Jul-24 01:33N 54°18' W 130°21'0 0.0
2014-Jul-23 22:33N 54°18' W 130°21'0 0.0
2014-Jul-23 21:33N 54°18' W 130°21'0 0.0
2014-Jul-23 20:33N 54°18' W 130°21'0 0.0
2014-Jul-23 19:33N 54°18' W 130°21'2 1.8
2014-Jul-23 18:33N 54°19' W 130°20'0 0.4
2014-Jul-23 17:33N 54°19' W 130°19'3 0.9
2014-Jul-23 14:10N 54°17' W 130°22'1 1.7
2014-Jul-23 13:33N 54°18' W 130°21'0 0.0
2014-Jul-23 12:33N 54°18' W 130°21'0 0.0
2014-Jul-23 11:33N 54°18' W 130°21'0 0.0
2014-Jul-23 10:33N 54°18' W 130°21'0 0.1
2014-Jul-23 09:34N 54°18' W 130°21'1 0.6
2014-Jul-23 07:31N 54°17' W 130°22'1 1.2
2014-Jul-23 06:33N 54°18' W 130°21'0 0.0
2014-Jul-23 05:33N 54°18' W 130°21'1 0.3
2014-Jul-23 02:33N 54°17' W 130°22'1 0.2
2014-Jul-22 22:33N 54°18' W 130°21'0 0.0
2014-Jul-22 21:33N 54°18' W 130°21'0 0.0
2014-Jul-22 20:33N 54°18' W 130°21'0 0.0
2014-Jul-22 19:33N 54°18' W 130°21'0 0.0
2014-Jul-22 18:33N 54°18' W 130°21'0 0.0
2014-Jul-22 17:33N 54°18' W 130°21'2 2.0
2014-Jul-22 16:33N 54°19' W 130°19'2 2.0
2014-Jul-22 15:33N 54°18' W 130°21'  

Dump ship's entire track history